Time,TemperatureF,DewpointF,PressureIn,WindDirection,WindDirectionDegrees,WindSpeedMPH,WindSpeedGustMPH,Humidity,HourlyPrecipIn,Conditions,Clouds,dailyrainin,SolarRadiationWatts/m^2,SoftwareType,DateUTC
2013-11-02 00:02:00,47.0,43.6,29.83,WNW,302,0.0,0.0,88,0.00,,,0.00,0,Wunderground v.1.15,2013-11-02 05:02:00,
2013-11-02 00:08:00,46.7,43.6,29.84,WNW,302,0.0,0.0,89,0.00,,,0.00,0,Wunderground v.1.15,2013-11-02 05:08:00,
2013-11-02 00:14:00,46.4,43.6,29.84,WNW,302,0.0,0.0,90,0.00,,,0.00,0,Wunderground v.1.15,2013-11-02 05:14:00,
2013-11-02 00:20:00,46.1,43.3,29.84,WNW,302,0.0,0.0,90,0.00,,,0.00,0,Wunderground v.1.15,2013-11-02 05:20:00,
2013-11-02 00:26:00,45.9,43.4,29.84,WNW,302,0.0,0.0,91,0.00,,,0.00,0,Wunderground v.1.15,2013-11-02 05:26:00,
2013-11-02 00:32:00,45.6,43.4,29.83,WNW,302,0.0,0.0,92,0.00,,,0.00,0,Wunderground v.1.15,2013-11-02 05:32:00,
2013-11-02 00:38:00,45.4,43.2,29.84,WNW,302,0.0,0.0,92,0.00,,,0.00,0,Wunderground v.1.15,2013-11-02 05:38:00,
2013-11-02 00:43:00,45.2,42.7,29.84,WNW,302,0.0,0.0,91,0.00,,,0.00,0,Wunderground v.1.15,2013-11-02 05:43:00,
2013-11-02 00:48:00,45.1,42.9,29.84,WNW,302,0.0,0.0,92,0.00,,,0.00,0,Wunderground v.1.15,2013-11-02 05:48:00,
2013-11-02 00:54:00,44.9,42.7,29.83,WNW,302,0.0,0.0,92,0.00,,,0.00,0,Wunderground v.1.15,2013-11-02 05:54:00,
2013-11-02 01:00:00,44.7,42.5,29.84,WNW,302,0.0,0.0,92,0.00,,,0.00,0,Wunderground v.1.15,2013-11-02 06:00:00,
2013-11-02 01:06:00,44.7,43.1,29.84,WNW,302,0.0,0.0,94,0.00,,,0.00,0,Wunderground v.1.15,2013-11-02 06:06:00,
2013-11-02 01:12:00,44.7,43.1,29.84,WNW,302,0.0,0.0,94,0.00,,,0.00,0,Wunderground v.1.15,2013-11-02 06:12:00,
2013-11-02 01:18:00,44.5,42.9,29.84,WNW,302,0.0,0.0,94,0.00,,,0.00,0,Wunderground v.1.15,2013-11-02 06:18:00,
2013-11-02 01:24:00,44.3,42.4,29.85,WNW,302,0.0,0.0,93,0.00,,,0.00,0,Wunderground v.1.15,2013-11-02 06:24:00,
2013-11-02 01:30:00,44.2,42.6,29.85,WNW,302,0.0,0.0,94,0.00,,,0.00,0,Wunderground v.1.15,2013-11-02 06:30:00,
2013-11-02 01:36:00,44.1,42.5,29.85,WNW,302,0.0,0.0,94,0.00,,,0.00,0,Wunderground v.1.15,2013-11-02 06:36:00,
2013-11-02 01:42:00,44.0,42.4,29.85,WNW,302,0.0,0.0,94,0.00,,,0.00,0,Wunderground v.1.15,2013-11-02 06:42:00,
2013-11-02 01:47:00,43.9,42.3,29.85,WNW,302,0.0,0.0,94,0.00,,,0.00,0,Wunderground v.1.15,2013-11-02 06:47:00,
2013-11-02 01:54:00,43.7,41.8,29.85,WNW,302,0.0,0.0,93,0.00,,,0.00,0,Wunderground v.1.15,2013-11-02 06:54:00,
2013-11-02 02:00:00,43.5,41.9,29.85,WNW,302,0.0,0.0,94,0.00,,,0.00,0,Wunderground v.1.15,2013-11-02 07:00:00,
2013-11-02 02:06:00,43.6,42.0,29.85,WNW,302,0.0,0.0,94,0.00,,,0.00,0,Wunderground v.1.15,2013-11-02 07:06:00,
2013-11-02 02:12:00,43.6,42.0,29.85,WNW,302,0.0,0.0,94,0.00,,,0.00,0,Wunderground v.1.15,2013-11-02 07:12:00,
2013-11-02 02:18:00,43.4,41.8,29.85,WNW,302,0.0,0.0,94,0.00,,,0.00,0,Wunderground v.1.15,2013-11-02 07:18:00,
2013-11-02 02:24:00,43.4,42.1,29.85,WNW,302,0.0,0.0,95,0.00,,,0.00,0,Wunderground v.1.15,2013-11-02 07:24:00,
2013-11-02 02:30:00,43.3,42.0,29.85,WNW,302,0.0,0.0,95,0.00,,,0.00,0,Wunderground v.1.15,2013-11-02 07:30:00,
2013-11-02 02:36:00,43.1,41.5,29.85,WNW,302,0.0,1.0,94,0.00,,,0.00,0,Wunderground v.1.15,2013-11-02 07:36:00,
2013-11-02 02:42:00,42.9,41.3,29.85,WNW,302,0.0,1.0,94,0.00,,,0.00,0,Wunderground v.1.15,2013-11-02 07:42:00,
2013-11-02 02:48:00,42.7,41.1,29.85,WNW,302,0.0,2.0,94,0.00,,,0.00,0,Wunderground v.1.15,2013-11-02 07:48:00,
2013-11-02 02:54:00,42.6,41.3,29.86,WNW,302,0.0,2.0,95,0.00,,,0.00,0,Wunderground v.1.15,2013-11-02 07:54:00,
2013-11-02 03:00:00,42.5,41.2,29.86,WNW,302,0.0,0.0,95,0.00,,,0.00,0,Wunderground v.1.15,2013-11-02 08:00:00,
2013-11-02 03:06:00,42.7,41.4,29.86,WNW,302,0.0,1.0,95,0.00,,,0.00,0,Wunderground v.1.15,2013-11-02 08:06:00,
2013-11-02 03:11:00,43.1,42.0,29.86,WNW,302,1.0,2.0,96,0.00,,,0.00,0,Wunderground v.1.15,2013-11-02 08:11:00,
2013-11-02 03:17:00,43.4,42.1,29.86,WNW,303,1.0,3.0,95,0.00,,,0.00,0,Wunderground v.1.15,2013-11-02 08:17:00,
2013-11-02 03:23:00,43.7,42.4,29.86,WNW,302,1.0,1.0,95,0.00,,,0.00,0,Wunderground v.1.15,2013-11-02 08:23:00,
2013-11-02 03:29:00,43.8,42.2,29.86,WNW,302,0.0,1.0,94,0.00,,,0.00,0,Wunderground v.1.15,2013-11-02 08:29:00,
2013-11-02 03:35:00,43.8,41.9,29.86,WNW,290,0.0,2.0,93,0.00,,,0.00,0,Wunderground v.1.15,2013-11-02 08:35:00,
2013-11-02 03:41:00,44.1,42.2,29.86,WNW,290,0.0,1.0,93,0.00,,,0.00,0,Wunderground v.1.15,2013-11-02 08:41:00,
2013-11-02 03:47:00,44.1,42.2,29.86,WNW,290,0.0,1.0,93,0.00,,,0.00,0,Wunderground v.1.15,2013-11-02 08:47:00,
2013-11-02 03:52:00,44.0,41.8,29.86,WNW,290,0.0,1.0,92,0.00,,,0.00,0,Wunderground v.1.15,2013-11-02 08:52:00,
2013-11-02 03:58:00,43.8,41.9,29.86,WNW,290,0.0,1.0,93,0.00,,,0.00,0,Wunderground v.1.15,2013-11-02 08:58:00,
2013-11-02 04:04:00,43.6,41.7,29.86,WNW,290,0.0,0.0,93,0.00,,,0.00,0,Wunderground v.1.15,2013-11-02 09:04:00,
2013-11-02 04:10:00,43.3,41.4,29.87,WNW,290,0.0,1.0,93,0.00,,,0.00,0,Wunderground v.1.15,2013-11-02 09:10:00,
2013-11-02 04:16:00,43.0,41.1,29.87,WNW,301,1.0,1.0,93,0.00,,,0.00,0,Wunderground v.1.15,2013-11-02 09:16:00,
2013-11-02 04:22:00,43.0,41.4,29.87,WNW,301,1.0,1.0,94,0.00,,,0.00,0,Wunderground v.1.15,2013-11-02 09:22:00,
2013-11-02 04:28:00,43.2,41.6,29.87,WNW,301,1.0,2.0,94,0.00,,,0.00,0,Wunderground v.1.15,2013-11-02 09:28:00,
2013-11-02 04:33:00,43.4,41.8,29.87,WNW,301,1.0,3.0,94,0.00,,,0.00,0,Wunderground v.1.15,2013-11-02 09:33:00,
2013-11-02 04:39:00,43.7,41.8,29.87,WNW,301,1.0,3.0,93,0.00,,,0.00,0,Wunderground v.1.15,2013-11-02 09:39:00,
2013-11-02 04:45:00,43.8,41.9,29.87,WNW,301,0.0,3.0,93,0.00,,,0.00,0,Wunderground v.1.15,2013-11-02 09:45:00,
2013-11-02 04:51:00,43.8,41.6,29.87,WNW,301,0.0,3.0,92,0.00,,,0.00,0,Wunderground v.1.15,2013-11-02 09:51:00,
2013-11-02 04:56:00,43.7,41.5,29.87,WNW,301,0.0,3.0,92,0.00,,,0.00,0,Wunderground v.1.15,2013-11-02 09:56:00,
2013-11-02 05:02:00,43.6,41.4,29.87,WNW,301,0.0,1.0,92,0.00,,,0.00,0,Wunderground v.1.15,2013-11-02 10:02:00,
2013-11-02 05:08:00,43.5,41.6,29.87,WNW,300,0.0,1.0,93,0.00,,,0.00,0,Wunderground v.1.15,2013-11-02 10:08:00,
2013-11-02 05:14:00,43.4,41.5,29.87,WNW,300,0.0,0.0,93,0.00,,,0.00,0,Wunderground v.1.15,2013-11-02 10:14:00,
2013-11-02 05:20:00,43.1,40.9,29.87,WNW,300,0.0,0.0,92,0.00,,,0.00,0,Wunderground v.1.15,2013-11-02 10:20:00,
2013-11-02 05:26:00,43.0,41.1,29.88,WNW,300,0.0,0.0,93,0.00,,,0.00,0,Wunderground v.1.15,2013-11-02 10:26:00,
2013-11-02 05:32:00,42.8,40.6,29.88,WNW,300,0.0,3.0,92,0.00,,,0.00,0,Wunderground v.1.15,2013-11-02 10:32:00,
2013-11-02 05:38:00,42.5,40.3,29.88,WNW,300,0.0,3.0,92,0.00,,,0.00,0,Wunderground v.1.15,2013-11-02 10:38:00,
2013-11-02 05:43:00,42.1,39.9,29.88,WNW,300,0.0,3.0,92,0.00,,,0.00,0,Wunderground v.1.15,2013-11-02 10:43:00,
2013-11-02 05:49:00,41.8,39.9,29.89,WNW,300,0.0,3.0,93,0.00,,,0.00,0,Wunderground v.1.15,2013-11-02 10:49:00,
2013-11-02 05:55:00,41.7,40.1,29.88,WNW,300,0.0,3.0,94,0.00,,,0.00,0,Wunderground v.1.15,2013-11-02 10:55:00,
2013-11-02 06:00:00,41.7,40.1,29.88,WNW,300,0.0,0.0,94,0.00,,,0.00,0,Wunderground v.1.15,2013-11-02 11:00:00,
2013-11-02 06:06:00,41.5,39.9,29.89,WNW,300,0.0,0.0,94,0.00,,,0.00,0,Wunderground v.1.15,2013-11-02 11:06:00,
2013-11-02 06:12:00,41.1,39.5,29.89,WNW,300,0.0,0.0,94,0.00,,,0.00,0,Wunderground v.1.15,2013-11-02 11:12:00,
2013-11-02 06:18:00,41.1,39.8,29.89,WNW,300,0.0,0.0,95,0.00,,,0.00,0,Wunderground v.1.15,2013-11-02 11:18:00,
2013-11-02 06:23:00,41.0,39.7,29.90,WNW,300,0.0,0.0,95,0.00,,,0.00,0,Wunderground v.1.15,2013-11-02 11:23:00,
2013-11-02 06:29:00,40.9,39.6,29.90,WNW,300,0.0,0.0,95,0.00,,,0.00,0,Wunderground v.1.15,2013-11-02 11:29:00,
2013-11-02 06:35:00,40.8,39.5,29.90,WNW,300,0.0,1.0,95,0.00,,,0.00,0,Wunderground v.1.15,2013-11-02 11:35:00,
2013-11-02 06:41:00,41.1,40.0,29.90,WNW,300,1.0,1.0,96,0.00,,,0.00,0,Wunderground v.1.15,2013-11-02 11:41:00,
2013-11-02 06:47:00,41.5,40.4,29.90,West,281,1.0,2.0,96,0.00,,,0.00,0,Wunderground v.1.15,2013-11-02 11:47:00,
2013-11-02 06:53:00,41.9,40.8,29.91,WNW,286,1.0,2.0,96,0.00,,,0.00,0,Wunderground v.1.15,2013-11-02 11:53:00,
2013-11-02 06:59:00,42.2,40.9,29.91,WNW,286,1.0,2.0,95,0.00,,,0.00,0,Wunderground v.1.15,2013-11-02 11:59:00,
2013-11-02 07:05:00,42.2,40.6,29.91,WNW,286,1.0,1.0,94,0.00,,,0.00,0,Wunderground v.1.15,2013-11-02 12:05:00,
2013-11-02 07:11:00,42.2,40.6,29.91,WNW,283,0.0,0.0,94,0.00,,,0.00,0,Wunderground v.1.15,2013-11-02 12:11:00,
2013-11-02 07:16:00,41.9,40.0,29.91,WNW,283,0.0,0.0,93,0.00,,,0.00,0,Wunderground v.1.15,2013-11-02 12:16:00,
2013-11-02 07:22:00,41.7,40.1,29.91,WNW,283,0.0,2.0,94,0.00,,,0.00,0,Wunderground v.1.15,2013-11-02 12:22:00,
2013-11-02 07:28:00,41.8,40.5,29.91,West,280,1.0,2.0,95,0.00,,,0.00,7,Wunderground v.1.15,2013-11-02 12:28:00,
2013-11-02 07:34:00,42.0,40.7,29.91,West,280,1.0,2.0,95,0.00,,,0.00,9,Wunderground v.1.15,2013-11-02 12:34:00,
2013-11-02 07:40:00,42.1,40.5,29.92,West,280,1.0,1.0,94,0.00,,,0.00,12,Wunderground v.1.15,2013-11-02 12:40:00,
2013-11-02 07:46:00,42.0,40.4,29.92,West,280,0.0,2.0,94,0.00,,,0.00,16,Wunderground v.1.15,2013-11-02 12:46:00,
2013-11-02 07:52:00,42.1,40.8,29.92,West,263,0.0,5.0,95,0.00,,,0.00,21,Wunderground v.1.15,2013-11-02 12:52:00,
2013-11-02 07:58:00,42.6,41.3,29.92,WNW,283,2.0,5.0,95,0.00,,,0.00,33,Wunderground v.1.15,2013-11-02 12:58:00,
2013-11-02 08:03:00,43.1,41.5,29.93,WNW,294,2.0,4.0,94,0.00,,,0.00,58,Wunderground v.1.15,2013-11-02 13:03:00,
2013-11-02 08:09:00,43.7,42.1,29.93,WNW,301,1.0,4.0,94,0.00,,,0.00,79,Wunderground v.1.15,2013-11-02 13:09:00,
2013-11-02 08:15:00,44.4,42.5,29.93,WNW,299,2.0,3.0,93,0.00,,,0.00,81,Wunderground v.1.15,2013-11-02 13:15:00,
2013-11-02 08:21:00,45.0,42.8,29.93,WNW,302,2.0,4.0,92,0.00,,,0.00,47,Wunderground v.1.15,2013-11-02 13:21:00,
2013-11-02 08:27:00,45.5,43.0,29.94,NW,306,3.0,4.0,91,0.00,,,0.00,54,Wunderground v.1.15,2013-11-02 13:27:00,
2013-11-02 08:33:00,45.9,43.4,29.94,NW,318,3.0,4.0,91,0.00,,,0.00,90,Wunderground v.1.15,2013-11-02 13:33:00,
2013-11-02 08:39:00,46.4,43.9,29.94,WNW,285,3.0,4.0,91,0.00,,,0.00,104,Wunderground v.1.15,2013-11-02 13:39:00,
2013-11-02 08:44:00,46.6,43.8,29.94,West,265,3.0,4.0,90,0.00,,,0.00,83,Wunderground v.1.15,2013-11-02 13:44:00,
2013-11-02 08:50:00,46.9,44.1,29.94,NW,312,3.0,4.0,90,0.00,,,0.00,77,Wunderground v.1.15,2013-11-02 13:50:00,
2013-11-02 08:56:00,47.2,44.4,29.95,West,277,3.0,4.0,90,0.00,,,0.00,111,Wunderground v.1.15,2013-11-02 13:56:00,
2013-11-02 09:02:00,47.4,44.0,29.95,WNW,292,4.0,4.0,88,0.00,,,0.00,69,Wunderground v.1.15,2013-11-02 14:02:00,
2013-11-02 09:08:00,47.3,44.2,29.95,NW,315,4.0,5.0,89,0.00,,,0.00,67,Wunderground v.1.15,2013-11-02 14:08:00,
2013-11-02 09:13:00,47.4,44.6,29.96,NW,312,3.0,4.0,90,0.00,,,0.00,144,Wunderground v.1.15,2013-11-02 14:13:00,
2013-11-02 09:19:00,48.2,45.1,29.96,NW,314,4.0,7.0,89,0.00,,,0.00,279,Wunderground v.1.15,2013-11-02 14:19:00,
2013-11-02 09:25:00,48.5,45.1,29.96,NW,305,5.0,7.0,88,0.00,,,0.00,74,Wunderground v.1.15,2013-11-02 14:25:00,
2013-11-02 09:31:00,48.3,44.6,29.96,NNW,336,5.0,6.0,87,0.00,,,0.00,63,Wunderground v.1.15,2013-11-02 14:31:00,
2013-11-02 09:37:00,48.2,44.5,29.96,NW,313,4.0,6.0,87,0.00,,,0.00,88,Wunderground v.1.15,2013-11-02 14:37:00,
2013-11-02 09:43:00,48.2,44.8,29.97,NW,315,3.0,6.0,88,0.00,,,0.00,90,Wunderground v.1.15,2013-11-02 14:43:00,
2013-11-02 09:49:00,48.1,44.1,29.97,NNW,337,3.0,6.0,86,0.00,,,0.00,74,Wunderground v.1.15,2013-11-02 14:49:00,
2013-11-02 09:54:00,48.2,45.1,29.97,NNW,334,3.0,6.0,89,0.00,,,0.00,204,Wunderground v.1.15,2013-11-02 14:54:00,
2013-11-02 10:00:00,49.1,45.7,29.97,NNW,342,3.0,3.0,88,0.00,,,0.00,480,Wunderground v.1.15,2013-11-02 15:00:00,
2013-11-02 10:06:00,50.0,46.3,29.97,NNW,333,4.0,5.0,87,0.00,,,0.00,531,Wunderground v.1.15,2013-11-02 15:06:00,
2013-11-02 10:12:00,50.8,45.5,29.97,NNW,338,4.0,4.0,82,0.00,,,0.00,244,Wunderground v.1.15,2013-11-02 15:12:00,
2013-11-02 10:18:00,51.1,45.1,29.97,North,355,4.0,9.0,80,0.00,,,0.00,128,Wunderground v.1.15,2013-11-02 15:18:00,
2013-11-02 10:24:00,50.9,44.6,29.97,North,351,5.0,8.0,79,0.00,,,0.00,104,Wunderground v.1.15,2013-11-02 15:24:00,
2013-11-02 10:30:00,51.0,44.7,29.97,NNW,337,5.0,5.0,79,0.00,,,0.00,77,Wunderground v.1.15,2013-11-02 15:30:00,
2013-11-02 10:36:00,50.6,44.3,29.98,NNW,332,5.0,10.0,79,0.00,,,0.00,74,Wunderground v.1.15,2013-11-02 15:36:00,
2013-11-02 10:42:00,50.7,45.1,29.98,NNW,346,4.0,10.0,81,0.00,,,0.00,69,Wunderground v.1.15,2013-11-02 15:42:00,
2013-11-02 10:47:00,51.3,45.0,29.98,NNE,17,4.0,10.0,79,0.00,,,0.00,181,Wunderground v.1.15,2013-11-02 15:47:00,
2013-11-02 10:53:00,52.1,45.1,29.99,NNW,331,5.0,11.0,77,0.00,,,0.00,188,Wunderground v.1.15,2013-11-02 15:53:00,
2013-11-02 10:59:00,52.8,45.4,29.99,North,350,7.0,11.0,76,0.00,,,0.00,278,Wunderground v.1.15,2013-11-02 15:59:00,
2013-11-02 11:04:00,53.1,45.7,29.99,NW,323,6.0,7.0,76,0.00,,,0.00,174,Wunderground v.1.15,2013-11-02 16:04:00,
2013-11-02 11:10:00,52.8,45.4,29.99,North,351,5.0,5.0,76,0.00,,,0.00,128,Wunderground v.1.15,2013-11-02 16:10:00,
2013-11-02 11:16:00,52.3,44.3,30.00,North,5,5.0,7.0,74,0.00,,,0.00,174,Wunderground v.1.15,2013-11-02 16:16:00,
2013-11-02 11:22:00,52.3,43.9,30.00,NNW,347,5.0,6.0,73,0.00,,,0.00,118,Wunderground v.1.15,2013-11-02 16:22:00,
2013-11-02 11:28:00,52.2,44.5,30.00,NNW,340,4.0,6.0,75,0.00,,,0.00,146,Wunderground v.1.15,2013-11-02 16:28:00,
2013-11-02 11:34:00,52.8,45.1,30.00,NW,319,4.0,11.0,75,0.00,,,0.00,174,Wunderground v.1.15,2013-11-02 16:34:00,
2013-11-02 11:39:00,53.4,45.3,30.00,NW,316,5.0,11.0,74,0.00,,,0.00,118,Wunderground v.1.15,2013-11-02 16:39:00,
2013-11-02 11:45:00,54.0,45.9,30.00,NW,306,5.0,11.0,74,0.00,,,0.00,142,Wunderground v.1.15,2013-11-02 16:45:00,
2013-11-02 11:51:00,54.8,45.9,30.00,NW,322,4.0,11.0,72,0.00,,,0.00,156,Wunderground v.1.15,2013-11-02 16:51:00,
2013-11-02 11:57:00,55.1,45.5,30.00,NNW,338,4.0,11.0,70,0.00,,,0.00,142,Wunderground v.1.15,2013-11-02 16:57:00,
2013-11-02 12:02:00,54.8,45.2,30.00,NW,325,5.0,5.0,70,0.00,,,0.00,90,Wunderground v.1.15,2013-11-02 17:02:00,
2013-11-02 12:08:00,55.4,46.2,30.00,WNW,290,5.0,6.0,71,0.00,,,0.00,100,Wunderground v.1.15,2013-11-02 17:08:00,
2013-11-02 12:14:00,56.2,45.8,30.00,NNW,348,5.0,5.0,68,0.00,,,0.00,162,Wunderground v.1.15,2013-11-02 17:14:00,
2013-11-02 12:20:00,56.2,45.8,30.00,NNW,336,4.0,4.0,68,0.00,,,0.00,545,Wunderground v.1.15,2013-11-02 17:20:00,
2013-11-02 12:26:00,56.2,45.4,29.99,West,275,4.0,5.0,67,0.00,,,0.00,315,Wunderground v.1.15,2013-11-02 17:26:00,
2013-11-02 12:32:00,56.7,45.1,29.99,NW,319,5.0,10.0,65,0.00,,,0.00,158,Wunderground v.1.15,2013-11-02 17:32:00,
2013-11-02 12:37:00,56.6,45.4,30.00,WNW,289,6.0,10.0,66,0.00,,,0.00,218,Wunderground v.1.15,2013-11-02 17:37:00,
2013-11-02 12:44:00,56.8,43.9,30.00,WNW,298,6.0,10.0,62,0.00,,,0.00,135,Wunderground v.1.15,2013-11-02 17:44:00,
2013-11-02 12:50:00,56.3,44.7,30.00,NNW,331,6.0,6.0,65,0.00,,,0.00,192,Wunderground v.1.15,2013-11-02 17:50:00,
2013-11-02 12:55:00,56.3,44.3,29.99,NW,319,5.0,10.0,64,0.00,,,0.00,195,Wunderground v.1.15,2013-11-02 17:55:00,
2013-11-02 13:00:00,56.9,44.4,29.99,North,5,4.0,5.0,63,0.00,,,0.00,181,Wunderground v.1.15,2013-11-02 18:00:00,
2013-11-02 13:06:00,56.5,44.0,29.99,North,355,5.0,8.0,63,0.00,,,0.00,172,Wunderground v.1.15,2013-11-02 18:06:00,
2013-11-02 13:12:00,56.7,44.7,29.99,NNW,340,6.0,7.0,64,0.00,,,0.00,123,Wunderground v.1.15,2013-11-02 18:12:00,
2013-11-02 13:18:00,56.5,44.5,29.99,NW,318,5.0,7.0,64,0.00,,,0.00,207,Wunderground v.1.15,2013-11-02 18:18:00,
2013-11-02 13:24:00,57.7,44.8,29.99,WNW,302,5.0,9.0,62,0.00,,,0.00,285,Wunderground v.1.15,2013-11-02 18:24:00,
2013-11-02 13:30:00,58.3,44.9,29.99,WNW,292,6.0,6.0,61,0.00,,,0.00,197,Wunderground v.1.15,2013-11-02 18:30:00,
2013-11-02 13:36:00,57.5,45.0,29.99,West,266,5.0,10.0,63,0.00,,,0.00,146,Wunderground v.1.15,2013-11-02 18:36:00,
2013-11-02 13:42:00,56.7,44.7,29.99,NNW,337,5.0,10.0,64,0.00,,,0.00,107,Wunderground v.1.15,2013-11-02 18:42:00,
2013-11-02 13:48:00,56.2,44.6,29.99,NW,315,5.0,10.0,65,0.00,,,0.00,84,Wunderground v.1.15,2013-11-02 18:48:00,
2013-11-02 13:54:00,55.7,44.9,29.99,NNW,337,5.0,10.0,67,0.00,,,0.00,70,Wunderground v.1.15,2013-11-02 18:54:00,
2013-11-02 14:00:00,55.2,44.0,29.99,NW,320,6.0,8.0,66,0.00,,,0.00,88,Wunderground v.1.15,2013-11-02 19:00:00,
2013-11-02 14:06:00,55.0,44.2,29.99,NW,320,5.0,8.0,67,0.00,,,0.00,105,Wunderground v.1.15,2013-11-02 19:06:00,
2013-11-02 14:12:00,55.1,44.3,29.99,NW,313,4.0,6.0,67,0.00,,,0.00,81,Wunderground v.1.15,2013-11-02 19:12:00,
2013-11-02 14:18:00,55.1,43.9,29.99,NW,321,5.0,12.0,66,0.00,,,0.00,77,Wunderground v.1.15,2013-11-02 19:18:00,
2013-11-02 14:23:00,55.1,43.9,29.99,NW,310,5.0,6.0,66,0.00,,,0.00,98,Wunderground v.1.15,2013-11-02 19:23:00,
2013-11-02 14:29:00,55.7,44.5,29.99,NW,310,4.0,6.0,66,0.00,,,0.00,475,Wunderground v.1.15,2013-11-02 19:29:00,
2013-11-02 14:35:00,55.6,44.0,30.00,NNW,336,5.0,10.0,65,0.00,,,0.00,72,Wunderground v.1.15,2013-11-02 19:35:00,
2013-11-02 14:41:00,55.2,44.0,30.00,NW,320,6.0,10.0,66,0.00,,,0.00,492,Wunderground v.1.15,2013-11-02 19:41:00,
2013-11-02 14:47:00,56.6,44.1,30.00,WNW,287,5.0,10.0,63,0.00,,,0.00,86,Wunderground v.1.15,2013-11-02 19:47:00,
2013-11-02 14:53:00,56.3,43.4,30.00,WNW,296,5.0,10.0,62,0.00,,,0.00,116,Wunderground v.1.15,2013-11-02 19:53:00,
2013-11-02 14:59:00,56.2,43.8,30.00,NW,304,4.0,10.0,63,0.00,,,0.00,151,Wunderground v.1.15,2013-11-02 19:59:00,
2013-11-02 15:05:00,56.0,44.0,30.00,NNW,342,5.0,7.0,64,0.00,,,0.00,111,Wunderground v.1.15,2013-11-02 20:05:00,
2013-11-02 15:11:00,55.8,43.8,30.00,NW,321,5.0,6.0,64,0.00,,,0.00,76,Wunderground v.1.15,2013-11-02 20:11:00,
2013-11-02 15:17:00,56.0,44.4,30.00,NNW,332,5.0,9.0,65,0.00,,,0.00,425,Wunderground v.1.15,2013-11-02 20:17:00,
2013-11-02 15:22:00,57.1,43.8,30.00,NW,322,6.0,8.0,61,0.00,,,0.00,427,Wunderground v.1.15,2013-11-02 20:22:00,
2013-11-02 15:28:00,57.8,44.0,30.00,WNW,296,6.0,8.0,60,0.00,,,0.00,455,Wunderground v.1.15,2013-11-02 20:28:00,
2013-11-02 15:34:00,58.6,44.3,30.00,North,355,7.0,13.0,59,0.00,,,0.00,499,Wunderground v.1.15,2013-11-02 20:34:00,
2013-11-02 15:40:00,58.4,43.7,30.01,NW,313,7.0,7.0,58,0.00,,,0.00,135,Wunderground v.1.15,2013-11-02 20:40:00,
2013-11-02 15:46:00,57.4,43.6,30.01,NW,319,6.0,13.0,60,0.00,,,0.00,63,Wunderground v.1.15,2013-11-02 20:46:00,
2013-11-02 15:52:00,56.3,43.0,30.01,NNW,333,5.0,13.0,61,0.00,,,0.00,49,Wunderground v.1.15,2013-11-02 20:52:00,
2013-11-02 15:58:00,55.7,42.9,30.02,North,10,6.0,13.0,62,0.00,,,0.00,49,Wunderground v.1.15,2013-11-02 20:58:00,
2013-11-02 16:04:00,55.4,43.0,30.02,NW,317,5.0,7.0,63,0.00,,,0.00,62,Wunderground v.1.15,2013-11-02 21:04:00,
2013-11-02 16:10:00,55.2,43.2,30.02,NNW,343,5.0,5.0,64,0.00,,,0.00,49,Wunderground v.1.15,2013-11-02 21:10:00,
2013-11-02 16:16:00,55.1,43.1,30.03,NNW,342,4.0,6.0,64,0.00,,,0.00,44,Wunderground v.1.15,2013-11-02 21:16:00,
2013-11-02 16:21:00,55.0,43.0,30.03,NW,312,4.0,6.0,64,0.00,,,0.00,40,Wunderground v.1.15,2013-11-02 21:21:00,
2013-11-02 16:27:00,54.8,43.7,30.03,NW,310,3.0,6.0,66,0.00,,,0.00,46,Wunderground v.1.15,2013-11-02 21:27:00,
2013-11-02 16:33:00,54.5,42.6,30.03,NNW,342,3.0,13.0,64,0.00,,,0.00,33,Wunderground v.1.15,2013-11-02 21:33:00,
2013-11-02 16:39:00,54.2,42.3,30.03,North,355,4.0,13.0,64,0.00,,,0.00,37,Wunderground v.1.15,2013-11-02 21:39:00,
2013-11-02 16:45:00,54.0,42.1,30.04,NNW,331,5.0,13.0,64,0.00,,,0.00,54,Wunderground v.1.15,2013-11-02 21:45:00,
2013-11-02 16:51:00,54.2,42.7,30.04,North,355,5.0,13.0,65,0.00,,,0.00,60,Wunderground v.1.15,2013-11-02 21:51:00,
2013-11-02 16:57:00,54.4,42.5,30.04,NNW,348,4.0,13.0,64,0.00,,,0.00,40,Wunderground v.1.15,2013-11-02 21:57:00,
2013-11-02 17:03:00,54.4,42.1,30.05,NNW,345,4.0,6.0,63,0.00,,,0.00,74,Wunderground v.1.15,2013-11-02 22:03:00,
2013-11-02 17:09:00,54.3,41.6,30.05,NW,309,6.0,10.0,62,0.00,,,0.00,58,Wunderground v.1.15,2013-11-02 22:09:00,
2013-11-02 17:15:00,54.2,41.9,30.05,NW,305,5.0,8.0,63,0.00,,,0.00,40,Wunderground v.1.15,2013-11-02 22:15:00,
2013-11-02 17:20:00,54.0,42.1,30.05,NW,321,6.0,8.0,64,0.00,,,0.00,32,Wunderground v.1.15,2013-11-02 22:20:00,
2013-11-02 17:26:00,53.8,41.9,30.06,NNW,344,6.0,8.0,64,0.00,,,0.00,21,Wunderground v.1.15,2013-11-02 22:26:00,
2013-11-02 17:31:00,53.7,41.8,30.06,North,355,5.0,9.0,64,0.00,,,0.00,16,Wunderground v.1.15,2013-11-02 22:31:00,
2013-11-02 17:37:00,53.5,42.0,30.06,NW,317,5.0,9.0,65,0.00,,,0.00,14,Wunderground v.1.15,2013-11-02 22:37:00,
2013-11-02 17:43:00,53.3,41.8,30.06,North,5,4.0,9.0,65,0.00,,,0.00,14,Wunderground v.1.15,2013-11-02 22:43:00,
2013-11-02 17:49:00,53.0,41.5,30.06,NW,315,4.0,9.0,65,0.00,,,0.00,9,Wunderground v.1.15,2013-11-02 22:49:00,
2013-11-02 17:55:00,52.8,41.7,30.07,NNW,339,5.0,9.0,66,0.00,,,0.00,0,Wunderground v.1.15,2013-11-02 22:55:00,
2013-11-02 18:00:00,52.6,41.6,30.07,NW,319,5.0,5.0,66,0.00,,,0.00,0,Wunderground v.1.15,2013-11-02 23:00:00,
2013-11-02 18:06:00,52.6,41.6,30.07,NW,319,5.0,11.0,66,0.00,,,0.00,0,Wunderground v.1.15,2013-11-02 23:06:00,
2013-11-02 18:12:00,52.4,41.4,30.08,NNW,338,6.0,7.0,66,0.00,,,0.00,0,Wunderground v.1.15,2013-11-02 23:12:00,
2013-11-02 18:18:00,52.1,41.1,30.08,NNW,332,5.0,7.0,66,0.00,,,0.00,0,Wunderground v.1.15,2013-11-02 23:18:00,
2013-11-02 18:23:00,51.8,41.2,30.08,NW,322,5.0,7.0,67,0.00,,,0.00,0,Wunderground v.1.15,2013-11-02 23:23:00,
2013-11-02 18:29:00,51.3,41.1,30.09,NNW,331,4.0,7.0,68,0.00,,,0.00,0,Wunderground v.1.15,2013-11-02 23:29:00,
2013-11-02 18:35:00,51.1,41.3,30.09,NNW,342,4.0,11.0,69,0.00,,,0.00,0,Wunderground v.1.15,2013-11-02 23:35:00,
2013-11-02 18:41:00,50.8,41.0,30.09,North,360,4.0,11.0,69,0.00,,,0.00,0,Wunderground v.1.15,2013-11-02 23:41:00,
2013-11-02 18:47:00,50.4,40.6,30.10,NNW,330,4.0,11.0,69,0.00,,,0.00,0,Wunderground v.1.15,2013-11-02 23:47:00,
2013-11-02 18:53:00,50.2,40.4,30.10,NW,323,4.0,11.0,69,0.00,,,0.00,0,Wunderground v.1.15,2013-11-02 23:53:00,
2013-11-02 18:59:00,49.8,40.0,30.10,NW,323,3.0,11.0,69,0.00,,,0.00,0,Wunderground v.1.15,2013-11-02 23:59:00,
2013-11-02 19:05:00,49.5,40.1,30.11,NNW,339,2.0,4.0,70,0.00,,,0.00,0,Wunderground v.1.15,2013-11-03 00:05:00,
2013-11-02 19:11:00,49.2,39.8,30.11,NNW,328,2.0,2.0,70,0.00,,,0.00,0,Wunderground v.1.15,2013-11-03 00:11:00,
2013-11-02 19:17:00,48.8,39.8,30.12,NNW,336,2.0,2.0,71,0.00,,,0.00,0,Wunderground v.1.15,2013-11-03 00:17:00,
2013-11-02 19:23:00,48.5,39.9,30.12,NNW,336,1.0,2.0,72,0.00,,,0.00,0,Wunderground v.1.15,2013-11-03 00:23:00,
2013-11-02 19:28:00,48.1,39.5,30.12,NNW,336,1.0,2.0,72,0.00,,,0.00,0,Wunderground v.1.15,2013-11-03 00:28:00,
2013-11-02 19:34:00,47.7,39.5,30.12,NNW,335,1.0,10.0,73,0.00,,,0.00,0,Wunderground v.1.15,2013-11-03 00:34:00,
2013-11-02 19:40:00,47.4,39.5,30.13,NNW,336,0.0,10.0,74,0.00,,,0.00,0,Wunderground v.1.15,2013-11-03 00:40:00,
2013-11-02 19:46:00,47.0,39.8,30.13,NNW,336,0.0,10.0,76,0.00,,,0.00,0,Wunderground v.1.15,2013-11-03 00:46:00,
2013-11-02 19:52:00,46.5,39.7,30.13,NNW,336,0.0,10.0,77,0.00,,,0.00,0,Wunderground v.1.15,2013-11-03 00:52:00,
2013-11-02 19:58:00,46.0,39.2,30.14,NNW,336,1.0,10.0,77,0.00,,,0.00,0,Wunderground v.1.15,2013-11-03 00:58:00,
2013-11-02 20:04:00,45.5,39.0,30.14,NNW,336,1.0,2.0,78,0.00,,,0.00,0,Wunderground v.1.15,2013-11-03 01:04:00,
2013-11-02 20:10:00,45.3,39.2,30.14,NNW,336,1.0,1.0,79,0.00,,,0.00,0,Wunderground v.1.15,2013-11-03 01:10:00,
2013-11-02 20:15:00,45.2,39.1,30.14,NNW,335,2.0,2.0,79,0.00,,,0.00,0,Wunderground v.1.15,2013-11-03 01:15:00,
2013-11-02 20:21:00,45.2,39.1,30.14,NNW,335,2.0,3.0,79,0.00,,,0.00,0,Wunderground v.1.15,2013-11-03 01:21:00,
2013-11-02 20:27:00,45.3,39.2,30.15,NNW,335,2.0,3.0,79,0.00,,,0.00,0,Wunderground v.1.15,2013-11-03 01:27:00,
2013-11-02 20:33:00,45.2,39.1,30.15,NNW,335,2.0,4.0,79,0.00,,,0.00,0,Wunderground v.1.15,2013-11-03 01:33:00,
2013-11-02 20:39:00,45.1,39.3,30.15,NNW,335,2.0,4.0,80,0.00,,,0.00,0,Wunderground v.1.15,2013-11-03 01:39:00,
2013-11-02 20:45:00,44.9,39.1,30.15,NNW,335,1.0,4.0,80,0.00,,,0.00,0,Wunderground v.1.15,2013-11-03 01:45:00,
2013-11-02 20:51:00,44.8,39.0,30.15,NNW,335,1.0,4.0,80,0.00,,,0.00,0,Wunderground v.1.15,2013-11-03 01:51:00,
2013-11-02 20:56:00,44.8,39.3,30.15,NNW,335,0.0,4.0,81,0.00,,,0.00,0,Wunderground v.1.15,2013-11-03 01:56:00,
2013-11-02 21:02:00,44.7,39.2,30.15,NNW,335,0.0,0.0,81,0.00,,,0.00,0,Wunderground v.1.15,2013-11-03 02:02:00,
2013-11-02 21:07:00,44.4,39.6,30.15,NNW,335,0.0,0.0,83,0.00,,,0.00,0,Wunderground v.1.15,2013-11-03 02:07:00,
2013-11-02 21:13:00,43.9,39.1,30.16,NNW,335,0.0,0.0,83,0.00,,,0.00,0,Wunderground v.1.15,2013-11-03 02:13:00,
2013-11-02 21:19:00,43.4,38.9,30.16,NNW,335,0.0,0.0,84,0.00,,,0.00,0,Wunderground v.1.15,2013-11-03 02:19:00,
2013-11-02 21:25:00,43.0,38.8,30.17,NNW,335,0.0,0.0,85,0.00,,,0.00,0,Wunderground v.1.15,2013-11-03 02:25:00,
2013-11-02 21:31:00,42.7,38.5,30.17,NNW,335,0.0,3.0,85,0.00,,,0.00,0,Wunderground v.1.15,2013-11-03 02:31:00,
2013-11-02 21:37:00,42.3,38.4,30.17,NNW,335,0.0,3.0,86,0.00,,,0.00,0,Wunderground v.1.15,2013-11-03 02:37:00,
2013-11-02 21:43:00,41.9,38.6,30.17,NNW,335,0.0,3.0,88,0.00,,,0.00,0,Wunderground v.1.15,2013-11-03 02:43:00,
2013-11-02 21:48:00,41.5,38.2,30.17,NNW,335,0.0,3.0,88,0.00,,,0.00,0,Wunderground v.1.15,2013-11-03 02:48:00,
2013-11-02 21:53:00,41.1,38.1,30.18,NNW,335,0.0,3.0,89,0.00,,,0.00,0,Wunderground v.1.15,2013-11-03 02:53:00,
2013-11-02 21:59:00,40.8,37.8,30.18,NNW,335,0.0,3.0,89,0.00,,,0.00,0,Wunderground v.1.15,2013-11-03 02:59:00,
2013-11-02 22:04:00,40.6,37.9,30.18,NNW,335,0.0,0.0,90,0.00,,,0.00,0,Wunderground v.1.15,2013-11-03 03:04:00,
2013-11-02 22:09:00,40.4,38.0,30.18,NNW,335,0.0,0.0,91,0.00,,,0.00,0,Wunderground v.1.15,2013-11-03 03:09:00,
2013-11-02 22:15:00,40.1,37.7,30.18,NNW,335,0.0,0.0,91,0.00,,,0.00,0,Wunderground v.1.15,2013-11-03 03:15:00,
2013-11-02 22:21:00,39.9,37.5,30.18,NNW,335,0.0,0.0,91,0.00,,,0.00,0,Wunderground v.1.15,2013-11-03 03:21:00,
2013-11-02 22:27:00,39.7,37.3,30.18,NNW,335,0.0,0.0,91,0.00,,,0.00,0,Wunderground v.1.15,2013-11-03 03:27:00,
2013-11-02 22:33:00,39.5,37.1,30.19,NNW,335,0.0,0.0,91,0.00,,,0.00,0,Wunderground v.1.15,2013-11-03 03:33:00,
2013-11-02 22:38:00,39.3,37.2,30.19,NNW,335,0.0,0.0,92,0.00,,,0.00,0,Wunderground v.1.15,2013-11-03 03:38:00,
2013-11-02 22:43:00,39.2,37.1,30.18,NNW,335,0.0,0.0,92,0.00,,,0.00,0,Wunderground v.1.15,2013-11-03 03:43:00,
2013-11-02 22:49:00,39.0,36.9,30.19,NNW,335,0.0,0.0,92,0.00,,,0.00,0,Wunderground v.1.15,2013-11-03 03:49:00,
2013-11-02 22:55:00,38.8,36.9,30.19,NNW,335,0.0,0.0,93,0.00,,,0.00,0,Wunderground v.1.15,2013-11-03 03:55:00,
2013-11-02 23:00:00,38.7,36.9,30.18,NNW,335,0.0,0.0,93,0.00,,,0.00,0,Wunderground v.1.15,2013-11-03 04:00:00,
2013-11-02 23:01:00,38.7,36.9,30.18,NNW,335,0.0,0.0,93,0.00,,,0.00,0,Wunderground v.1.15,2013-11-03 04:01:00,
2013-11-02 23:02:00,38.7,36.9,30.18,NNW,335,0.0,0.0,93,0.00,,,0.00,0,Wunderground v.1.15,2013-11-03 04:02:00,
2013-11-02 23:04:00,38.6,36.8,30.18,NNW,335,0.0,0.0,93,0.00,,,0.00,0,Wunderground v.1.15,2013-11-03 04:04:00,
2013-11-02 23:05:00,38.6,36.8,30.18,NNW,335,0.0,0.0,93,0.00,,,0.00,0,Wunderground v.1.15,2013-11-03 04:05:00,
2013-11-02 23:09:00,38.4,36.6,30.18,NNW,335,0.0,0.0,93,0.00,,,0.00,0,Wunderground v.1.15,2013-11-03 04:09:00,
2013-11-02 23:11:00,38.4,36.6,30.18,NNW,335,0.0,0.0,93,0.00,,,0.00,0,Wunderground v.1.15,2013-11-03 04:11:00,
2013-11-02 23:17:00,38.2,36.4,30.18,NNW,335,0.0,0.0,93,0.00,,,0.00,0,Wunderground v.1.15,2013-11-03 04:17:00,
2013-11-02 23:23:00,37.9,36.1,30.18,NNW,335,0.0,0.0,93,0.00,,,0.00,0,Wunderground v.1.15,2013-11-03 04:23:00,
2013-11-02 23:29:00,37.8,36.2,30.18,NNW,335,0.0,0.0,94,0.00,,,0.00,0,Wunderground v.1.15,2013-11-03 04:29:00,
2013-11-02 23:35:00,37.7,36.1,30.19,NNW,335,0.0,0.0,94,0.00,,,0.00,0,Wunderground v.1.15,2013-11-03 04:35:00,
2013-11-02 23:40:00,37.5,35.7,30.19,NNW,335,0.0,0.0,93,0.00,,,0.00,0,Wunderground v.1.15,2013-11-03 04:40:00,
2013-11-02 23:46:00,37.3,35.7,30.19,NNW,335,0.0,0.0,94,0.00,,,0.00,0,Wunderground v.1.15,2013-11-03 04:46:00,
2013-11-02 23:52:00,37.2,35.6,30.18,NNW,335,0.0,0.0,94,0.00,,,0.00,0,Wunderground v.1.15,2013-11-03 04:52:00,
2013-11-02 23:58:00,37.1,35.5,30.18,NNW,335,0.0,0.0,94,0.00,,,0.00,0,Wunderground v.1.15,2013-11-03 04:58:00,